Lovely Linda — WCV8236 — position and weather

sailwx.info

Track history (hours):
 
Tides and Currents Weather Stations Pressure Air Temp Water Temp Dewpoint Dewpoint Depression Visibility Wind Speed Wind Dir Waves Ship Positions

Lovely Linda

Owner: LUGO, PETER A, CAPE CORAL, FL. More information available from US FCC via Universal Licensing System and Coast Guard Vessel Documentation Center.

Last reported at 2018-Jan-23 05:26 UTC. Time now 2018-Jan-23 05:57 UTC.
Position N 34°09' W 119°12'.

Length 32 m.

Type: Passenger vessel. MMSI: 367077090.

Date/timePositionNaut miles runAvg speedWind from/ knotsBaromVisibWave heightAir tempDewpointWater temp
2018-Jan-23 05:26N 34°09' W 119°12'0 0.0
2018-Jan-23 03:44N 34°09' W 119°12'0 0.0
2018-Jan-23 00:47N 34°09' W 119°12'2 7.6
2018-Jan-23 00:29N 34°09' W 119°15'714.8
2018-Jan-22 23:59N 34°12' W 119°23'714.5
2018-Jan-22 23:30N 34°15' W 119°31'1014.6
2018-Jan-22 22:50N 34°18' W 119°42'513.6
2018-Jan-22 22:29N 34°19' W 119°48'1013.8
2018-Jan-22 21:48N 34°21' W 119°59'413.9
2018-Jan-22 21:29N 34°22' W 120°04'3 6.7
2018-Jan-22 21:00N 34°23' W 120°07'0 0.1
2018-Jan-22 19:56N 34°23' W 120°07'0 0.4
2018-Jan-22 19:29N 34°23' W 120°07'0 0.4
2018-Jan-22 18:54N 34°23' W 120°07'1013.6
2018-Jan-22 18:11N 34°25' W 119°56'2 4.8
2018-Jan-22 17:45N 34°24' W 119°58'514.7
2018-Jan-22 17:24N 34°23' W 120°04'3 7.4
2018-Jan-22 17:00N 34°23' W 120°08'814.6
2018-Jan-22 16:28N 34°21' W 120°17'2 3.3
2018-Jan-22 16:00N 34°21' W 120°15'4 6.9
2018-Jan-22 15:25N 34°23' W 120°10'2 3.9
2018-Jan-22 14:47N 34°23' W 120°07'0 0.8
2018-Jan-22 14:29N 34°23' W 120°07'0 0.1
2018-Jan-22 13:58N 34°23' W 120°07'0 0.0
2018-Jan-22 13:28N 34°23' W 120°07'0 0.0
2018-Jan-22 12:45N 34°23' W 120°07'0 0.0
2018-Jan-22 12:13N 34°23' W 120°07'0 0.0
2018-Jan-22 11:52N 34°23' W 120°07'0 0.1
2018-Jan-22 11:25N 34°23' W 120°07'0 0.0
2018-Jan-22 10:55N 34°23' W 120°07'0 0.0
2018-Jan-22 10:27N 34°23' W 120°07'0 0.1
2018-Jan-22 09:38N 34°23' W 120°07'0 0.0
2018-Jan-22 09:14N 34°23' W 120°07'0 0.1
2018-Jan-22 08:53N 34°23' W 120°07'0 0.1
2018-Jan-22 08:21N 34°23' W 120°07'0 0.0
2018-Jan-22 07:59N 34°23' W 120°07'0 0.0
2018-Jan-22 07:30N 34°23' W 120°07'0 0.0
2018-Jan-22 07:00N 34°23' W 120°07'0 0.0
2018-Jan-22 06:14N 34°23' W 120°07'0 0.0
2018-Jan-22 05:58N 34°23' W 120°07'0 0.0
2018-Jan-22 05:29N 34°23' W 120°07'0 0.0
2018-Jan-22 04:55N 34°23' W 120°07'0 0.0
2018-Jan-22 04:29N 34°23' W 120°07'0 0.0
2018-Jan-22 03:57N 34°23' W 120°07'0 0.0
2018-Jan-22 03:27N 34°23' W 120°07'0 0.1
2018-Jan-22 02:58N 34°23' W 120°07'0 0.0
2018-Jan-22 02:29N 34°23' W 120°07'0 0.0
2018-Jan-22 01:56N 34°23' W 120°07'0 0.0
2018-Jan-22 01:28N 34°23' W 120°07'0 0.0
2018-Jan-22 00:55N 34°23' W 120°07'0 0.0
2018-Jan-22 00:24N 34°23' W 120°07'0 0.0
2018-Jan-21 23:58N 34°23' W 120°07'0 0.0
2018-Jan-21 23:28N 34°23' W 120°07'0 0.0
2018-Jan-21 22:58N 34°23' W 120°07'0 0.0
2018-Jan-21 22:29N 34°23' W 120°07'0 0.0
2018-Jan-21 21:53N 34°23' W 120°07'0 0.0
2018-Jan-21 21:28N 34°23' W 120°07'0 0.1
2018-Jan-21 20:58N 34°23' W 120°07'0 0.0
2018-Jan-21 20:25N 34°23' W 120°07'0 0.1
2018-Jan-21 20:00N 34°23' W 120°07'0 0.0
2018-Jan-21 19:30N 34°23' W 120°07'0 0.0
2018-Jan-21 18:50N 34°23' W 120°07'0 0.0
2018-Jan-21 18:30N 34°23' W 120°07'0 0.0
2018-Jan-21 18:00N 34°23' W 120°07'0 0.0
2018-Jan-21 17:26N 34°23' W 120°07'0 0.0
2018-Jan-21 16:59N 34°23' W 120°07'0 0.0
2018-Jan-21 16:30N 34°23' W 120°07'0 0.5
2018-Jan-21 16:00N 34°23' W 120°07'5 9.2
2018-Jan-21 15:29N 34°22' W 120°13'2 3.3
2018-Jan-21 14:50N 34°23' W 120°10'3 8.8
2018-Jan-21 14:30N 34°23' W 120°07'0 0.0
2018-Jan-21 13:59N 34°23' W 120°07'0 0.0
2018-Jan-21 13:30N 34°23' W 120°07'0 0.0
2018-Jan-21 12:55N 34°23' W 120°07'0 0.0
2018-Jan-21 12:30N 34°23' W 120°07'0 0.0
2018-Jan-21 11:42N 34°23' W 120°07'0 0.0
2018-Jan-21 11:30N 34°23' W 120°07'0 0.0
2018-Jan-21 11:00N 34°23' W 120°07'0 0.0
2018-Jan-21 10:30N 34°23' W 120°07'0 0.0
2018-Jan-21 09:57N 34°23' W 120°07'0 0.0
2018-Jan-21 09:28N 34°23' W 120°07'0 0.0
2018-Jan-21 08:59N 34°23' W 120°07'0 0.0
2018-Jan-21 08:30N 34°23' W 120°07'0 0.0
2018-Jan-21 07:57N 34°23' W 120°07'0 0.0
2018-Jan-21 07:30N 34°23' W 120°07'0 0.0
2018-Jan-21 07:00N 34°23' W 120°07'0 0.0
2018-Jan-21 06:30N 34°23' W 120°07'0 0.0
2018-Jan-21 06:00N 34°23' W 120°07'0 0.0
2018-Jan-21 05:25N 34°23' W 120°07'0 0.0
2018-Jan-21 05:00N 34°23' W 120°07'0 0.0
2018-Jan-21 04:28N 34°23' W 120°07'0 0.0
2018-Jan-21 04:00N 34°23' W 120°07'0 0.0
2018-Jan-21 03:30N 34°23' W 120°07'0 0.0
2018-Jan-21 03:00N 34°23' W 120°07'0 0.0
2018-Jan-21 02:30N 34°23' W 120°07'0 0.0
2018-Jan-21 02:00N 34°23' W 120°07'0 0.0
2018-Jan-21 01:30N 34°23' W 120°07'0 0.0
2018-Jan-21 01:00N 34°23' W 120°07'4 7.2
2018-Jan-21 00:27N 34°24' W 120°02'5 0.8
2018-Jan-20 18:11N 34°24' W 119°56'314.2
2018-Jan-20 17:58N 34°24' W 119°60'612.6
2018-Jan-20 17:30N 34°23' W 120°07'0 0.0
2018-Jan-20 17:00N 34°23' W 120°07'2 4.6
2018-Jan-20 16:30N 34°23' W 120°04'813.0
2018-Jan-20 15:55N 34°26' W 119°55'0 0.0
2018-Jan-20 09:51N 34°26' W 119°55'0 0.0
2018-Jan-20 07:53N 34°26' W 119°55'0 0.0
2018-Jan-20 06:53N 34°26' W 119°55'0 0.0
2018-Jan-19 22:07N 34°26' W 119°55'0 0.1
2018-Jan-19 22:00N 34°26' W 119°55'2 3.2
2018-Jan-19 21:21N 34°24' W 119°57'514.7
2018-Jan-19 21:00N 34°24' W 120°03'5 9.2
2018-Jan-19 20:29N 34°23' W 120°09'1 1.9
2018-Jan-19 19:59N 34°22' W 120°10'0 0.0
2018-Jan-19 19:26N 34°22' W 120°10'0 0.0
2018-Jan-19 18:59N 34°22' W 120°10'0 0.0
2018-Jan-19 18:30N 34°22' W 120°10'0 0.0
2018-Jan-19 17:59N 34°22' W 120°10'0 0.0
2018-Jan-19 17:27N 34°22' W 120°10'0 0.3
2018-Jan-19 16:59N 34°23' W 120°10'2 3.3
2018-Jan-19 16:21N 34°22' W 120°12'4 8.8
2018-Jan-19 15:54N 34°21' W 120°17'410.2
2018-Jan-19 15:30N 34°22' W 120°12'4 7.3
2018-Jan-19 14:56N 34°23' W 120°07'0 0.5
2018-Jan-19 14:27N 34°23' W 120°07'0 0.1
2018-Jan-19 14:00N 34°23' W 120°07'0 0.0
2018-Jan-19 13:29N 34°23' W 120°07'0 0.1
2018-Jan-19 12:55N 34°23' W 120°07'0 0.0
2018-Jan-19 12:29N 34°23' W 120°07'0 0.1
2018-Jan-19 11:57N 34°23' W 120°07'0 0.1
2018-Jan-19 11:21N 34°23' W 120°07'0 0.0
2018-Jan-19 10:59N 34°23' W 120°07'0 0.0
2018-Jan-19 10:25N 34°23' W 120°07'0 0.1
2018-Jan-19 09:58N 34°23' W 120°07'0 0.0
2018-Jan-19 09:25N 34°23' W 120°07'0 0.0
2018-Jan-19 08:59N 34°23' W 120°07'0 0.1
2018-Jan-19 08:28N 34°23' W 120°07'0 0.1
2018-Jan-19 08:00N 34°23' W 120°07'0 0.0
2018-Jan-19 07:30N 34°23' W 120°07'0 0.0
2018-Jan-19 07:00N 34°23' W 120°07'0 0.0
2018-Jan-19 06:30N 34°23' W 120°07'0 0.0
2018-Jan-19 06:00N 34°23' W 120°07'0 0.0
2018-Jan-19 05:30N 34°23' W 120°07'0 0.0
2018-Jan-19 04:49N 34°23' W 120°07'0 0.0
2018-Jan-19 04:22N 34°23' W 120°07'0 0.0
2018-Jan-19 03:58N 34°23' W 120°07'0 0.0
2018-Jan-19 03:29N 34°23' W 120°07'0 0.0
2018-Jan-19 03:00N 34°23' W 120°07'0 0.0
2018-Jan-19 02:25N 34°23' W 120°07'0 0.0
2018-Jan-19 01:57N 34°23' W 120°07'0 0.3
2018-Jan-19 01:28N 34°23' W 120°07'2 5.2
2018-Jan-19 00:59N 34°23' W 120°10'610.6
2018-Jan-19 00:27N 34°21' W 120°17'611.1
2018-Jan-18 23:55N 34°22' W 120°10'0 0.0
2018-Jan-18 23:13N 34°22' W 120°10'0 0.0
2018-Jan-18 22:50N 34°22' W 120°10'0 0.0
2018-Jan-18 22:27N 34°22' W 120°10'0 0.0
2018-Jan-18 21:55N 34°22' W 120°10'0 0.0
2018-Jan-18 21:19N 34°22' W 120°10'0 0.0
2018-Jan-18 20:43N 34°23' W 120°10'0 0.0
2018-Jan-18 20:21N 34°23' W 120°10'0 0.0
2018-Jan-18 19:56N 34°23' W 120°10'0 0.1
2018-Jan-18 19:23N 34°23' W 120°10'0 0.0
2018-Jan-18 18:58N 34°22' W 120°10'0 0.0
2018-Jan-18 18:27N 34°22' W 120°10'0 0.0
2018-Jan-18 17:59N 34°22' W 120°10'0 0.0
2018-Jan-18 17:28N 34°23' W 120°10'0 0.0
2018-Jan-18 17:00N 34°22' W 120°10'914.8
2018-Jan-18 16:22N 34°24' W 119°59'3 8.9
2018-Jan-18 16:00N 34°26' W 119°55'0 0.4
2018-Jan-18 15:26N 34°26' W 119°55'0 0.0
2018-Jan-18 14:56N 34°26' W 119°55'0 0.0
2018-Jan-18 12:35N 34°26' W 119°55'0 0.0
2018-Jan-18 12:29N 34°26' W 119°55'0 0.0
2018-Jan-18 11:50N 34°26' W 119°55'0 0.0
2018-Jan-18 09:18N 34°26' W 119°55'0 0.0
2018-Jan-18 08:57N 34°26' W 119°55'0 0.0
2018-Jan-18 06:33N 34°26' W 119°55'0 0.0
2018-Jan-18 06:27N 34°26' W 119°55'0 0.0
2018-Jan-18 06:00N 34°26' W 119°55'0 0.0
2018-Jan-18 05:08N 34°26' W 119°55'0 0.0
2018-Jan-18 04:45N 34°26' W 119°55'0 0.0
2018-Jan-18 04:23N 34°26' W 119°55'0 0.0
2018-Jan-18 03:07N 34°26' W 119°55'0 0.0
2018-Jan-18 02:55N 34°26' W 119°55'0 0.0
2018-Jan-18 02:28N 34°26' W 119°55'0 0.0
2018-Jan-18 01:55N 34°26' W 119°55'0 0.0
2018-Jan-18 01:16N 34°26' W 119°55'0 0.0
2018-Jan-18 00:58N 34°26' W 119°55'  
Track history (hours):
 
Tides and Currents Weather Stations Pressure Air Temp Water Temp Dewpoint Dewpoint Depression Visibility Wind Speed Wind Dir Waves Ship Positions

Lovely Linda

Owner: LUGO, PETER A, CAPE CORAL, FL. More information available from US FCC via Universal Licensing System and Coast Guard Vessel Documentation Center.

Last reported at 2018-Jan-23 05:26 UTC. Time now 2018-Jan-23 05:57 UTC.
Position N 34°09' W 119°12'.

Length 32 m.

Type: Passenger vessel. MMSI: 367077090.

Date/timePositionNaut miles runAvg speedWind from/ knotsBaromVisibWave heightAir tempDewpointWater temp
2018-Jan-23 05:26N 34°09' W 119°12'0 0.0
2018-Jan-23 03:44N 34°09' W 119°12'0 0.0
2018-Jan-23 00:47N 34°09' W 119°12'2 7.6
2018-Jan-23 00:29N 34°09' W 119°15'714.8
2018-Jan-22 23:59N 34°12' W 119°23'714.5
2018-Jan-22 23:30N 34°15' W 119°31'1014.6
2018-Jan-22 22:50N 34°18' W 119°42'513.6
2018-Jan-22 22:29N 34°19' W 119°48'1013.8
2018-Jan-22 21:48N 34°21' W 119°59'413.9
2018-Jan-22 21:29N 34°22' W 120°04'3 6.7
2018-Jan-22 21:00N 34°23' W 120°07'0 0.1
2018-Jan-22 19:56N 34°23' W 120°07'0 0.4
2018-Jan-22 19:29N 34°23' W 120°07'0 0.4
2018-Jan-22 18:54N 34°23' W 120°07'1013.6
2018-Jan-22 18:11N 34°25' W 119°56'2 4.8
2018-Jan-22 17:45N 34°24' W 119°58'514.7
2018-Jan-22 17:24N 34°23' W 120°04'3 7.4
2018-Jan-22 17:00N 34°23' W 120°08'814.6
2018-Jan-22 16:28N 34°21' W 120°17'2 3.3
2018-Jan-22 16:00N 34°21' W 120°15'4 6.9
2018-Jan-22 15:25N 34°23' W 120°10'2 3.9
2018-Jan-22 14:47N 34°23' W 120°07'0 0.8
2018-Jan-22 14:29N 34°23' W 120°07'0 0.1
2018-Jan-22 13:58N 34°23' W 120°07'0 0.0
2018-Jan-22 13:28N 34°23' W 120°07'0 0.0
2018-Jan-22 12:45N 34°23' W 120°07'0 0.0
2018-Jan-22 12:13N 34°23' W 120°07'0 0.0
2018-Jan-22 11:52N 34°23' W 120°07'0 0.1
2018-Jan-22 11:25N 34°23' W 120°07'0 0.0
2018-Jan-22 10:55N 34°23' W 120°07'0 0.0
2018-Jan-22 10:27N 34°23' W 120°07'0 0.1
2018-Jan-22 09:38N 34°23' W 120°07'0 0.0
2018-Jan-22 09:14N 34°23' W 120°07'0 0.1
2018-Jan-22 08:53N 34°23' W 120°07'0 0.1
2018-Jan-22 08:21N 34°23' W 120°07'0 0.0
2018-Jan-22 07:59N 34°23' W 120°07'0 0.0
2018-Jan-22 07:30N 34°23' W 120°07'0 0.0
2018-Jan-22 07:00N 34°23' W 120°07'0 0.0
2018-Jan-22 06:14N 34°23' W 120°07'0 0.0
2018-Jan-22 05:58N 34°23' W 120°07'0 0.0
2018-Jan-22 05:29N 34°23' W 120°07'0 0.0
2018-Jan-22 04:55N 34°23' W 120°07'0 0.0
2018-Jan-22 04:29N 34°23' W 120°07'0 0.0
2018-Jan-22 03:57N 34°23' W 120°07'0 0.0
2018-Jan-22 03:27N 34°23' W 120°07'0 0.1
2018-Jan-22 02:58N 34°23' W 120°07'0 0.0
2018-Jan-22 02:29N 34°23' W 120°07'0 0.0
2018-Jan-22 01:56N 34°23' W 120°07'0 0.0
2018-Jan-22 01:28N 34°23' W 120°07'0 0.0
2018-Jan-22 00:55N 34°23' W 120°07'0 0.0
2018-Jan-22 00:24N 34°23' W 120°07'0 0.0
2018-Jan-21 23:58N 34°23' W 120°07'0 0.0
2018-Jan-21 23:28N 34°23' W 120°07'0 0.0
2018-Jan-21 22:58N 34°23' W 120°07'0 0.0
2018-Jan-21 22:29N 34°23' W 120°07'0 0.0
2018-Jan-21 21:53N 34°23' W 120°07'0 0.0
2018-Jan-21 21:28N 34°23' W 120°07'0 0.1
2018-Jan-21 20:58N 34°23' W 120°07'0 0.0
2018-Jan-21 20:25N 34°23' W 120°07'0 0.1
2018-Jan-21 20:00N 34°23' W 120°07'0 0.0
2018-Jan-21 19:30N 34°23' W 120°07'0 0.0
2018-Jan-21 18:50N 34°23' W 120°07'0 0.0
2018-Jan-21 18:30N 34°23' W 120°07'0 0.0
2018-Jan-21 18:00N 34°23' W 120°07'0 0.0
2018-Jan-21 17:26N 34°23' W 120°07'0 0.0
2018-Jan-21 16:59N 34°23' W 120°07'0 0.0
2018-Jan-21 16:30N 34°23' W 120°07'0 0.5
2018-Jan-21 16:00N 34°23' W 120°07'5 9.2
2018-Jan-21 15:29N 34°22' W 120°13'2 3.3
2018-Jan-21 14:50N 34°23' W 120°10'3 8.8
2018-Jan-21 14:30N 34°23' W 120°07'0 0.0
2018-Jan-21 13:59N 34°23' W 120°07'0 0.0
2018-Jan-21 13:30N 34°23' W 120°07'0 0.0
2018-Jan-21 12:55N 34°23' W 120°07'0 0.0
2018-Jan-21 12:30N 34°23' W 120°07'0 0.0
2018-Jan-21 11:42N 34°23' W 120°07'0 0.0
2018-Jan-21 11:30N 34°23' W 120°07'0 0.0
2018-Jan-21 11:00N 34°23' W 120°07'0 0.0
2018-Jan-21 10:30N 34°23' W 120°07'0 0.0
2018-Jan-21 09:57N 34°23' W 120°07'0 0.0
2018-Jan-21 09:28N 34°23' W 120°07'0 0.0
2018-Jan-21 08:59N 34°23' W 120°07'0 0.0
2018-Jan-21 08:30N 34°23' W 120°07'0 0.0
2018-Jan-21 07:57N 34°23' W 120°07'0 0.0
2018-Jan-21 07:30N 34°23' W 120°07'0 0.0
2018-Jan-21 07:00N 34°23' W 120°07'0 0.0
2018-Jan-21 06:30N 34°23' W 120°07'0 0.0
2018-Jan-21 06:00N 34°23' W 120°07'0 0.0
2018-Jan-21 05:25N 34°23' W 120°07'0 0.0
2018-Jan-21 05:00N 34°23' W 120°07'0 0.0
2018-Jan-21 04:28N 34°23' W 120°07'0 0.0
2018-Jan-21 04:00N 34°23' W 120°07'0 0.0
2018-Jan-21 03:30N 34°23' W 120°07'0 0.0
2018-Jan-21 03:00N 34°23' W 120°07'0 0.0
2018-Jan-21 02:30N 34°23' W 120°07'0 0.0
2018-Jan-21 02:00N 34°23' W 120°07'0 0.0
2018-Jan-21 01:30N 34°23' W 120°07'0 0.0
2018-Jan-21 01:00N 34°23' W 120°07'4 7.2
2018-Jan-21 00:27N 34°24' W 120°02'5 0.8
2018-Jan-20 18:11N 34°24' W 119°56'314.2
2018-Jan-20 17:58N 34°24' W 119°60'612.6
2018-Jan-20 17:30N 34°23' W 120°07'0 0.0
2018-Jan-20 17:00N 34°23' W 120°07'2 4.6
2018-Jan-20 16:30N 34°23' W 120°04'813.0
2018-Jan-20 15:55N 34°26' W 119°55'0 0.0
2018-Jan-20 09:51N 34°26' W 119°55'0 0.0
2018-Jan-20 07:53N 34°26' W 119°55'0 0.0
2018-Jan-20 06:53N 34°26' W 119°55'0 0.0
2018-Jan-19 22:07N 34°26' W 119°55'0 0.1
2018-Jan-19 22:00N 34°26' W 119°55'2 3.2
2018-Jan-19 21:21N 34°24' W 119°57'514.7
2018-Jan-19 21:00N 34°24' W 120°03'5 9.2
2018-Jan-19 20:29N 34°23' W 120°09'1 1.9
2018-Jan-19 19:59N 34°22' W 120°10'0 0.0
2018-Jan-19 19:26N 34°22' W 120°10'0 0.0
2018-Jan-19 18:59N 34°22' W 120°10'0 0.0
2018-Jan-19 18:30N 34°22' W 120°10'0 0.0
2018-Jan-19 17:59N 34°22' W 120°10'0 0.0
2018-Jan-19 17:27N 34°22' W 120°10'0 0.3
2018-Jan-19 16:59N 34°23' W 120°10'2 3.3
2018-Jan-19 16:21N 34°22' W 120°12'4 8.8
2018-Jan-19 15:54N 34°21' W 120°17'410.2
2018-Jan-19 15:30N 34°22' W 120°12'4 7.3
2018-Jan-19 14:56N 34°23' W 120°07'0 0.5
2018-Jan-19 14:27N 34°23' W 120°07'0 0.1
2018-Jan-19 14:00N 34°23' W 120°07'0 0.0
2018-Jan-19 13:29N 34°23' W 120°07'0 0.1
2018-Jan-19 12:55N 34°23' W 120°07'0 0.0
2018-Jan-19 12:29N 34°23' W 120°07'0 0.1
2018-Jan-19 11:57N 34°23' W 120°07'0 0.1
2018-Jan-19 11:21N 34°23' W 120°07'0 0.0
2018-Jan-19 10:59N 34°23' W 120°07'0 0.0
2018-Jan-19 10:25N 34°23' W 120°07'0 0.1
2018-Jan-19 09:58N 34°23' W 120°07'0 0.0
2018-Jan-19 09:25N 34°23' W 120°07'0 0.0
2018-Jan-19 08:59N 34°23' W 120°07'0 0.1
2018-Jan-19 08:28N 34°23' W 120°07'0 0.1
2018-Jan-19 08:00N 34°23' W 120°07'0 0.0
2018-Jan-19 07:30N 34°23' W 120°07'0 0.0
2018-Jan-19 07:00N 34°23' W 120°07'0 0.0
2018-Jan-19 06:30N 34°23' W 120°07'0 0.0
2018-Jan-19 06:00N 34°23' W 120°07'0 0.0
2018-Jan-19 05:30N 34°23' W 120°07'0 0.0
2018-Jan-19 04:49N 34°23' W 120°07'0 0.0
2018-Jan-19 04:22N 34°23' W 120°07'0 0.0
2018-Jan-19 03:58N 34°23' W 120°07'0 0.0
2018-Jan-19 03:29N 34°23' W 120°07'0 0.0
2018-Jan-19 03:00N 34°23' W 120°07'0 0.0
2018-Jan-19 02:25N 34°23' W 120°07'0 0.0
2018-Jan-19 01:57N 34°23' W 120°07'0 0.3
2018-Jan-19 01:28N 34°23' W 120°07'2 5.2
2018-Jan-19 00:59N 34°23' W 120°10'610.6
2018-Jan-19 00:27N 34°21' W 120°17'611.1
2018-Jan-18 23:55N 34°22' W 120°10'0 0.0
2018-Jan-18 23:13N 34°22' W 120°10'0 0.0
2018-Jan-18 22:50N 34°22' W 120°10'0 0.0
2018-Jan-18 22:27N 34°22' W 120°10'0 0.0
2018-Jan-18 21:55N 34°22' W 120°10'0 0.0
2018-Jan-18 21:19N 34°22' W 120°10'0 0.0
2018-Jan-18 20:43N 34°23' W 120°10'0 0.0
2018-Jan-18 20:21N 34°23' W 120°10'0 0.0
2018-Jan-18 19:56N 34°23' W 120°10'0 0.1
2018-Jan-18 19:23N 34°23' W 120°10'0 0.0
2018-Jan-18 18:58N 34°22' W 120°10'0 0.0
2018-Jan-18 18:27N 34°22' W 120°10'0 0.0
2018-Jan-18 17:59N 34°22' W 120°10'0 0.0
2018-Jan-18 17:28N 34°23' W 120°10'0 0.0
2018-Jan-18 17:00N 34°22' W 120°10'914.8
2018-Jan-18 16:22N 34°24' W 119°59'3 8.9
2018-Jan-18 16:00N 34°26' W 119°55'0 0.4
2018-Jan-18 15:26N 34°26' W 119°55'0 0.0
2018-Jan-18 14:56N 34°26' W 119°55'0 0.0
2018-Jan-18 12:35N 34°26' W 119°55'0 0.0
2018-Jan-18 12:29N 34°26' W 119°55'0 0.0
2018-Jan-18 11:50N 34°26' W 119°55'0 0.0
2018-Jan-18 09:18N 34°26' W 119°55'0 0.0
2018-Jan-18 08:57N 34°26' W 119°55'0 0.0
2018-Jan-18 06:33N 34°26' W 119°55'0 0.0
2018-Jan-18 06:27N 34°26' W 119°55'0 0.0
2018-Jan-18 06:00N 34°26' W 119°55'0 0.0
2018-Jan-18 05:08N 34°26' W 119°55'0 0.0
2018-Jan-18 04:45N 34°26' W 119°55'0 0.0
2018-Jan-18 04:23N 34°26' W 119°55'0 0.0
2018-Jan-18 03:07N 34°26' W 119°55'0 0.0
2018-Jan-18 02:55N 34°26' W 119°55'0 0.0
2018-Jan-18 02:28N 34°26' W 119°55'0 0.0
2018-Jan-18 01:55N 34°26' W 119°55'0 0.0
2018-Jan-18 01:16N 34°26' W 119°55'0 0.0
2018-Jan-18 00:58N 34°26' W 119°55'  

Dump ship's entire track history